Terminal Aerodrome Forecast
Issued by NWS

Home | Current Version | Previous Version | Text Only | Print | Product List | Glossary On
Versions: 1 2 3 4 5 6 7 8 9 10 11 12 13 14 15 16 17 18 19 20 21 22 23 24 25 26 27 28 29 30
000
FTUS45 KRIW 292322
TAFPNA
TAF
KPNA 292322Z 3000/3024 VRB10G18KT P6SM VCTS SCT070CB BKN150
     FM300500 06008KT P6SM SCT150
     FM301700 VRB08KT P6SM VCSH SCT070 BKN090
     FM302100 31013G21KT P6SM VCTS SCT070CB BKN090
      AMD LTD TO CLD VIS AND WIND=

USA.gov is the U.S. government's official web portal to all federal, state and local government web resources and services.